createdAt,value
2023-02-17T00:00:13.628Z,4.12
2023-02-17T00:00:45.738Z,4.11
2023-02-17T00:01:21.002Z,4.12
2023-02-17T00:01:55.757Z,4.12
2023-02-17T00:02:28.084Z,4.11
2023-02-17T00:03:00.445Z,4.12
2023-02-17T00:03:35.144Z,4.11
2023-02-17T00:04:07.293Z,4.12
2023-02-17T00:04:42.006Z,4.12
2023-02-17T00:05:14.244Z,4.11
2023-02-17T00:05:46.336Z,4.12
2023-02-17T00:06:23.761Z,4.14
2023-02-17T00:06:56.584Z,4.13
2023-02-17T00:07:31.646Z,4.13
2023-02-17T00:08:06.401Z,4.13
2023-02-17T00:08:38.698Z,4.13
2023-02-17T00:09:13.443Z,4.13
2023-02-17T00:09:45.514Z,4.15
2023-02-17T00:10:20.581Z,4.13
2023-02-17T00:10:59.736Z,4.13
2023-02-17T00:11:31.977Z,4.12
2023-02-17T00:12:07.285Z,4.11
2023-02-17T00:12:39.403Z,4.12
2023-02-17T00:13:11.577Z,4.11
2023-02-17T00:13:46.347Z,4.12
2023-02-17T00:14:18.959Z,4.11
2023-02-17T00:14:53.639Z,4.12
2023-02-17T00:15:25.769Z,4.10
2023-02-17T00:15:58.107Z,4.10
2023-02-17T00:16:32.900Z,4.10
2023-02-17T00:17:04.960Z,4.08
2023-02-17T00:17:37.080Z,4.09
2023-02-17T00:18:09.154Z,4.09
2023-02-17T00:18:43.818Z,4.09
2023-02-17T00:19:25.587Z,4.10
2023-02-17T00:19:57.695Z,4.06
2023-02-17T00:20:32.448Z,4.08
2023-02-17T00:21:15.830Z,4.07
2023-02-17T00:21:48.056Z,4.07
2023-02-17T00:22:22.756Z,4.09
2023-02-17T00:22:54.925Z,4.08
2023-02-17T00:23:27.049Z,4.10
2023-02-17T00:24:02.635Z,4.11
2023-02-17T00:24:37.903Z,4.11
2023-02-17T00:25:10.025Z,4.10
2023-02-17T00:25:47.380Z,4.10
2023-02-17T00:26:20.324Z,4.12
2023-02-17T00:26:52.487Z,4.08
2023-02-17T00:27:27.313Z,4.04
2023-02-17T00:27:59.396Z,4.07
2023-02-17T00:28:31.567Z,4.07
2023-02-17T00:29:06.450Z,4.08
2023-02-17T00:29:38.878Z,4.09
2023-02-17T00:30:11.669Z,4.09
2023-02-17T00:30:46.351Z,4.09
2023-02-17T00:31:20.758Z,4.09
2023-02-17T00:31:56.431Z,4.09
2023-02-17T00:32:28.881Z,4.09
2023-02-17T00:33:01.892Z,4.08
2023-02-17T00:33:36.659Z,4.08
2023-02-17T00:34:10.513Z,4.08
2023-02-17T00:34:42.598Z,4.08
2023-02-17T00:35:17.546Z,4.07
2023-02-17T00:35:49.784Z,4.06
2023-02-17T00:36:22.163Z,4.07
2023-02-17T00:36:57.065Z,4.07
2023-02-17T00:37:29.156Z,4.06
2023-02-17T00:38:01.255Z,4.07
2023-02-17T00:38:36.324Z,4.11
2023-02-17T00:39:08.799Z,4.10
2023-02-17T00:39:41.074Z,4.09
2023-02-17T00:40:16.545Z,4.08
2023-02-17T00:40:51.212Z,4.06
2023-02-17T00:41:24.919Z,4.07
2023-02-17T00:41:59.597Z,4.09
2023-02-17T00:42:34.611Z,4.09
2023-02-17T00:43:06.804Z,4.09
2023-02-17T00:43:41.550Z,4.11
2023-02-17T00:44:17.725Z,4.10
2023-02-17T00:44:49.825Z,4.07
2023-02-17T00:45:24.611Z,4.09
2023-02-17T00:45:57.063Z,4.09
2023-02-17T00:46:31.785Z,4.10
2023-02-17T00:47:03.955Z,4.07
2023-02-17T00:47:36.034Z,4.06
2023-02-17T00:48:10.913Z,4.07
2023-02-17T00:48:44.141Z,4.07
2023-02-17T00:49:19.856Z,4.08
2023-02-17T00:49:54.719Z,4.08
2023-02-17T00:50:26.845Z,4.07
2023-02-17T00:50:58.987Z,4.08
2023-02-17T00:51:34.669Z,4.09
2023-02-17T00:52:09.064Z,4.09
2023-02-17T00:52:41.637Z,4.10
2023-02-17T00:53:16.412Z,4.11
2023-02-17T00:53:48.795Z,4.12
2023-02-17T00:54:21.286Z,4.14
2023-02-17T00:54:55.991Z,4.15
2023-02-17T00:55:28.205Z,4.17
2023-02-17T00:56:03.818Z,4.16
2023-02-17T00:56:38.661Z,4.17
2023-02-17T00:57:11.531Z,4.18
2023-02-17T00:57:43.622Z,4.18
2023-02-17T00:58:18.868Z,4.19
2023-02-17T00:58:51.053Z,4.17
2023-02-17T00:59:23.204Z,4.17
2023-02-17T00:59:55.337Z,4.15
2023-02-17T01:00:30.038Z,4.14
2023-02-17T01:01:02.335Z,4.13
2023-02-17T01:01:34.629Z,4.15
2023-02-17T01:02:09.380Z,4.15
2023-02-17T01:02:41.748Z,4.13
2023-02-17T01:03:13.901Z,4.13
2023-02-17T01:03:48.638Z,4.15
2023-02-17T01:04:20.740Z,4.13
2023-02-17T01:04:53.977Z,4.13
2023-02-17T01:05:28.796Z,4.12
2023-02-17T01:06:07.062Z,4.11
2023-02-17T01:06:40.838Z,4.11
2023-02-17T01:07:15.500Z,4.10
2023-02-17T01:07:47.604Z,4.09
2023-02-17T01:08:19.768Z,4.10
2023-02-17T01:08:54.889Z,4.10
2023-02-17T01:09:27.092Z,4.09
2023-02-17T01:09:59.208Z,4.09
2023-02-17T01:10:33.972Z,4.10
2023-02-17T01:11:16.582Z,4.11
2023-02-17T01:11:48.677Z,4.08
2023-02-17T01:12:23.478Z,4.09
2023-02-17T01:12:57.064Z,4.09
2023-02-17T01:13:29.175Z,4.10
2023-02-17T01:14:06.368Z,4.09
2023-02-17T01:14:38.603Z,4.07
2023-02-17T01:15:11.309Z,4.08
2023-02-17T01:15:49.241Z,4.09
2023-02-17T01:16:24.191Z,4.08
2023-02-17T01:16:56.299Z,4.08
2023-02-17T01:17:31.073Z,4.09
2023-02-17T01:18:03.447Z,4.07
2023-02-17T01:18:35.551Z,4.05
2023-02-17T01:19:13.969Z,4.07
2023-02-17T01:19:46.025Z,4.04
2023-02-17T01:20:18.656Z,4.06
2023-02-17T01:20:53.946Z,4.06
2023-02-17T01:21:28.776Z,4.04
2023-02-17T01:22:01.052Z,4.03
2023-02-17T01:22:36.973Z,4.02
2023-02-17T01:23:10.461Z,4.02
2023-02-17T01:23:42.625Z,4.02
2023-02-17T01:24:17.334Z,4.02
2023-02-17T01:24:49.464Z,4.01
2023-02-17T01:25:21.552Z,4.02
2023-02-17T01:25:54.053Z,4.02
2023-02-17T01:26:35.746Z,4.03
2023-02-17T01:27:07.832Z,4.03
2023-02-17T01:27:40.009Z,4.03
2023-02-17T01:28:19.388Z,4.04
2023-02-17T01:28:53.044Z,4.03
2023-02-17T01:29:27.799Z,4.03
2023-02-17T01:29:59.916Z,4.02
2023-02-17T01:30:32.501Z,4.03
2023-02-17T01:31:08.789Z,4.03
2023-02-17T01:31:41.176Z,4.01
2023-02-17T01:32:16.932Z,4.00
2023-02-17T01:32:51.689Z,4.01
2023-02-17T01:33:23.812Z,4.00
2023-02-17T01:33:57.897Z,4.01
2023-02-17T01:34:32.578Z,4.00
2023-02-17T01:35:05.112Z,4.00
2023-02-17T01:35:40.443Z,4.00
2023-02-17T01:36:17.673Z,4.01
2023-02-17T01:36:49.797Z,4.02
2023-02-17T01:37:22.006Z,4.02
2023-02-17T01:37:54.247Z,4.02
2023-02-17T01:38:31.497Z,4.02
2023-02-17T01:39:03.724Z,4.02
2023-02-17T01:39:36.073Z,4.01
2023-02-17T01:40:11.905Z,4.02
2023-02-17T01:40:47.539Z,4.02
2023-02-17T01:41:22.026Z,4.01
2023-02-17T01:41:59.576Z,4.02
2023-02-17T01:42:31.660Z,4.01
2023-02-17T01:43:04.101Z,4.02
2023-02-17T01:43:39.189Z,4.01
2023-02-17T01:44:15.435Z,4.02
2023-02-17T01:45:17.421Z,4.02
2023-02-17T01:45:57.924Z,4.00
2023-02-17T01:46:32.885Z,4.01
2023-02-17T01:47:07.646Z,4.01
2023-02-17T01:47:40.186Z,4.01
2023-02-17T01:48:16.346Z,4.02
2023-02-17T01:48:53.856Z,4.01
2023-02-17T01:49:33.028Z,4.00
2023-02-17T01:50:06.692Z,4.00
2023-02-17T01:50:46.350Z,4.00
2023-02-17T01:51:22.627Z,3.97
2023-02-17T01:52:01.276Z,3.98
2023-02-17T01:52:36.103Z,3.98
2023-02-17T01:53:11.505Z,4.00
2023-02-17T01:53:48.876Z,4.00
2023-02-17T01:54:27.423Z,4.01
2023-02-17T01:55:03.675Z,4.00
2023-02-17T01:55:38.321Z,3.99
2023-02-17T01:56:14.898Z,3.99
2023-02-17T01:56:50.448Z,3.98
2023-02-17T01:57:30.524Z,3.98
2023-02-17T01:58:04.757Z,3.96
2023-02-17T01:58:44.194Z,3.96
2023-02-17T01:59:19.135Z,3.94
2023-02-17T01:59:56.892Z,3.95
2023-02-17T02:00:32.299Z,3.95
2023-02-17T02:01:06.486Z,3.97
2023-02-17T02:01:42.984Z,3.98
2023-02-17T02:02:16.125Z,3.98
2023-02-17T02:02:50.442Z,4.00
2023-02-17T02:03:29.306Z,3.99
2023-02-17T02:04:04.983Z,3.99
2023-02-17T02:04:43.677Z,4.00
2023-02-17T02:05:18.229Z,3.99
2023-02-17T02:05:50.976Z,4.00
2023-02-17T02:06:28.932Z,3.99
2023-02-17T02:07:01.245Z,3.98
2023-02-17T02:07:36.699Z,3.97
2023-02-17T02:08:13.080Z,3.97
2023-02-17T02:08:53.208Z,3.95
2023-02-17T02:09:31.716Z,3.92
2023-02-17T02:10:06.721Z,3.92
2023-02-17T02:10:40.656Z,3.93
2023-02-17T02:11:15.393Z,3.94
2023-02-17T02:11:49.358Z,3.95
2023-02-17T02:12:26.030Z,3.96
2023-02-17T02:13:01.101Z,3.97
2023-02-17T02:13:33.549Z,3.96
2023-02-17T02:14:09.216Z,3.98
2023-02-17T02:14:44.337Z,3.98
2023-02-17T02:15:20.733Z,3.99
2023-02-17T02:16:01.643Z,3.98
2023-02-17T02:16:45.467Z,3.98
2023-02-17T02:17:27.712Z,3.96
2023-02-17T02:18:15.546Z,3.95
2023-02-17T02:18:59.291Z,3.96
2023-02-17T02:19:57.344Z,3.95
2023-02-17T02:20:59.706Z,3.94
2023-02-17T02:22:11.454Z,3.92
2023-02-17T02:23:08.643Z,3.91
2023-02-17T02:24:13.828Z,3.91
2023-02-17T02:25:02.501Z,3.90
2023-02-17T02:26:01.400Z,3.89
2023-02-17T02:26:59.216Z,3.86
2023-02-17T02:27:49.577Z,3.84
2023-02-17T02:28:37.155Z,3.84
2023-02-17T02:29:49.284Z,3.81
2023-02-17T02:30:40.996Z,3.80
2023-02-17T02:31:31.569Z,3.81
2023-02-17T02:32:10.159Z,3.76
2023-02-17T02:33:06.228Z,3.78
2023-02-17T02:33:43.757Z,3.80
2023-02-17T02:34:20.951Z,3.83
2023-02-17T02:35:00.546Z,3.86
2023-02-17T02:35:41.982Z,3.87
2023-02-17T02:36:22.878Z,3.88
2023-02-17T02:37:00.449Z,3.89
2023-02-17T02:37:37.097Z,3.90
2023-02-17T02:38:17.406Z,3.91
2023-02-17T02:38:53.226Z,3.87
2023-02-17T02:39:32.906Z,3.88
2023-02-17T02:40:11.927Z,3.90
2023-02-17T02:40:47.491Z,3.91
2023-02-17T02:41:26.750Z,3.93
2023-02-17T02:42:03.254Z,3.93
2023-02-17T02:42:35.760Z,3.94
2023-02-17T02:43:08.364Z,3.96
2023-02-17T02:43:44.463Z,3.99
2023-02-17T02:44:19.966Z,4.00
2023-02-17T02:44:52.066Z,4.00
2023-02-17T02:45:26.034Z,4.01
2023-02-17T02:46:01.092Z,4.01
2023-02-17T02:46:33.209Z,4.00
2023-02-17T02:47:27.456Z,4.02
2023-02-17T02:48:05.030Z,4.00
2023-02-17T02:48:38.115Z,4.01
2023-02-17T02:49:10.534Z,4.02
2023-02-17T02:49:45.424Z,4.03
2023-02-17T02:50:21.636Z,4.04
2023-02-17T02:51:05.962Z,4.04
2023-02-17T02:51:49.821Z,4.02
2023-02-17T02:52:32.145Z,4.01
2023-02-17T02:53:33.812Z,3.95
2023-02-17T02:54:32.681Z,3.95
2023-02-17T02:55:12.392Z,3.94
2023-02-17T02:55:55.715Z,3.96
2023-02-17T02:56:42.684Z,3.96
2023-02-17T02:57:25.000Z,3.96
2023-02-17T02:58:06.171Z,3.97
2023-02-17T02:58:47.891Z,3.97
2023-02-17T02:59:37.308Z,3.96
2023-02-17T03:00:20.859Z,3.95
2023-02-17T03:01:01.948Z,3.95
2023-02-17T03:01:44.141Z,3.94
2023-02-17T03:02:27.397Z,3.94
2023-02-17T03:03:09.561Z,3.93
2023-02-17T03:03:47.407Z,3.94
2023-02-17T03:04:31.915Z,3.95
2023-02-17T03:05:12.283Z,3.94
2023-02-17T03:05:54.471Z,3.95
2023-02-17T03:06:33.365Z,3.95
2023-02-17T03:07:11.551Z,3.96
2023-02-17T03:07:53.773Z,3.95
2023-02-17T03:08:33.586Z,3.94
2023-02-17T03:09:09.315Z,3.94
2023-02-17T03:09:44.441Z,3.94
2023-02-17T03:10:18.703Z,3.93
2023-02-17T03:10:53.352Z,3.94
2023-02-17T03:11:34.987Z,3.93
2023-02-17T03:12:08.768Z,3.93
2023-02-17T03:12:43.780Z,3.95
2023-02-17T03:13:18.155Z,3.96
2023-02-17T03:13:50.325Z,3.96
2023-02-17T03:14:23.312Z,3.97
2023-02-17T03:15:03.020Z,3.98
2023-02-17T03:15:35.816Z,3.97
2023-02-17T03:16:09.039Z,3.97
2023-02-17T03:16:43.081Z,3.98
2023-02-17T03:17:17.843Z,3.99
2023-02-17T03:17:56.996Z,3.97
2023-02-17T03:18:32.362Z,3.98
2023-02-17T03:19:07.985Z,3.97
2023-02-17T03:19:40.184Z,3.98
2023-02-17T03:20:14.118Z,3.97
2023-02-17T03:20:54.111Z,3.98
2023-02-17T03:21:31.573Z,3.95
2023-02-17T03:22:09.928Z,3.96
2023-02-17T03:22:47.875Z,3.94
2023-02-17T03:23:20.968Z,3.93
2023-02-17T03:23:53.617Z,3.93
2023-02-17T03:24:28.839Z,3.94
2023-02-17T03:25:01.404Z,3.94
2023-02-17T03:25:33.614Z,3.94
2023-02-17T03:26:08.706Z,3.94
2023-02-17T03:26:40.923Z,3.93
2023-02-17T03:27:13.284Z,3.93
2023-02-17T03:27:48.008Z,3.95
2023-02-17T03:28:20.450Z,3.94
2023-02-17T03:28:53.070Z,3.94
2023-02-17T03:29:27.759Z,3.94
2023-02-17T03:29:59.874Z,3.93
2023-02-17T03:30:32.160Z,3.94
2023-02-17T03:31:07.321Z,3.95
2023-02-17T03:31:40.703Z,3.94
2023-02-17T03:32:13.032Z,3.95
2023-02-17T03:32:47.919Z,3.96
2023-02-17T03:33:20.033Z,3.96
2023-02-17T03:33:54.832Z,3.97
2023-02-17T03:34:29.712Z,3.96
2023-02-17T03:35:02.848Z,3.95
2023-02-17T03:35:34.939Z,3.95
2023-02-17T03:36:10.500Z,3.94
2023-02-17T03:36:42.590Z,3.93
2023-02-17T03:37:14.856Z,3.94
2023-02-17T03:37:49.550Z,3.95
2023-02-17T03:38:21.636Z,3.92
2023-02-17T03:38:53.790Z,3.92
2023-02-17T03:39:25.867Z,3.92
2023-02-17T03:40:00.667Z,3.92
2023-02-17T03:40:32.809Z,3.92
2023-02-17T03:41:05.116Z,3.93
2023-02-17T03:41:37.235Z,3.93
2023-02-17T03:42:11.876Z,3.94
2023-02-17T03:42:44.044Z,3.93
2023-02-17T03:43:17.957Z,3.92
2023-02-17T03:43:50.453Z,3.93
2023-02-17T03:44:25.170Z,3.92
2023-02-17T03:44:57.252Z,3.91
2023-02-17T03:45:29.514Z,3.90
2023-02-17T03:46:01.782Z,3.89
2023-02-17T03:46:36.517Z,3.87
2023-02-17T03:47:08.773Z,3.87
2023-02-17T03:47:41.259Z,3.88
2023-02-17T03:48:13.442Z,3.86
2023-02-17T03:48:48.198Z,3.86
2023-02-17T03:49:22.987Z,3.86
2023-02-17T03:49:55.238Z,3.86
2023-02-17T03:50:29.917Z,3.88
2023-02-17T03:51:10.972Z,3.86
2023-02-17T03:51:45.618Z,3.86
2023-02-17T03:52:18.436Z,3.85
2023-02-17T03:52:50.524Z,3.86
2023-02-17T03:53:25.174Z,3.87
2023-02-17T03:53:57.427Z,3.86
2023-02-17T03:54:29.643Z,3.86
2023-02-17T03:55:04.314Z,3.89
2023-02-17T03:55:36.381Z,3.89
2023-02-17T03:56:08.766Z,3.90
2023-02-17T03:56:40.962Z,3.91
2023-02-17T03:57:15.640Z,3.92
2023-02-17T03:57:47.745Z,3.93
2023-02-17T03:58:19.796Z,3.93
2023-02-17T03:58:54.472Z,3.95
2023-02-17T03:59:27.244Z,3.95
2023-02-17T03:59:59.357Z,3.94
2023-02-17T04:00:34.090Z,3.96
2023-02-17T04:01:06.801Z,3.95
2023-02-17T04:01:39.012Z,3.95
2023-02-17T04:02:13.775Z,3.95
2023-02-17T04:02:45.895Z,3.92
2023-02-17T04:03:18.349Z,3.92
2023-02-17T04:03:53.299Z,3.92
2023-02-17T04:04:28.090Z,3.92
2023-02-17T04:05:00.369Z,3.91
2023-02-17T04:05:35.025Z,3.91
2023-02-17T04:06:08.488Z,3.91
2023-02-17T04:06:43.429Z,3.90
2023-02-17T04:07:15.574Z,3.89
2023-02-17T04:07:48.129Z,3.90
2023-02-17T04:08:22.999Z,3.90
2023-02-17T04:08:55.109Z,3.89
2023-02-17T04:09:27.263Z,3.91
2023-02-17T04:10:04.919Z,3.91
2023-02-17T04:10:37.699Z,3.88
2023-02-17T04:11:10.445Z,3.89
2023-02-17T04:11:45.676Z,3.89
2023-02-17T04:12:17.774Z,3.88
2023-02-17T04:12:49.853Z,3.89
2023-02-17T04:13:24.694Z,3.90
2023-02-17T04:13:56.842Z,3.88
2023-02-17T04:14:28.897Z,3.88
2023-02-17T04:15:03.534Z,3.89
2023-02-17T04:15:35.810Z,3.88
2023-02-17T04:16:09.940Z,3.88
2023-02-17T04:16:45.344Z,3.87
2023-02-17T04:17:17.481Z,3.87
2023-02-17T04:17:49.545Z,3.88
2023-02-17T04:18:25.625Z,3.89
2023-02-17T04:18:57.755Z,3.88
2023-02-17T04:19:34.994Z,3.89
2023-02-17T04:20:08.271Z,3.88
2023-02-17T04:20:40.536Z,3.88
2023-02-17T04:21:15.303Z,3.90
2023-02-17T04:21:47.452Z,3.91
2023-02-17T04:22:19.540Z,3.92
2023-02-17T04:22:54.238Z,3.92
2023-02-17T04:23:26.446Z,3.92
2023-02-17T04:24:00.782Z,3.92
2023-02-17T04:24:35.504Z,3.91
2023-02-17T04:25:07.822Z,3.92
2023-02-17T04:25:40.069Z,3.91
2023-02-17T04:26:16.106Z,3.90
2023-02-17T04:26:48.188Z,3.89
2023-02-17T04:27:20.318Z,3.89
2023-02-17T04:27:55.003Z,3.91
2023-02-17T04:28:27.224Z,3.90
2023-02-17T04:28:59.326Z,3.91
2023-02-17T04:29:34.065Z,3.90
2023-02-17T04:30:07.838Z,3.90
2023-02-17T04:30:40.603Z,3.89
2023-02-17T04:31:15.552Z,3.91
2023-02-17T04:31:47.798Z,3.91
2023-02-17T04:32:20.000Z,3.91
2023-02-17T04:32:54.784Z,3.91
2023-02-17T04:33:27.424Z,3.91
2023-02-17T04:33:59.532Z,3.90
2023-02-17T04:34:36.779Z,3.90
2023-02-17T04:35:08.864Z,3.88
2023-02-17T04:35:41.204Z,3.90
2023-02-17T04:36:16.048Z,3.93
2023-02-17T04:36:50.767Z,3.89
2023-02-17T04:37:22.865Z,3.89
2023-02-17T04:37:55.508Z,3.88
2023-02-17T04:38:31.420Z,3.90
2023-02-17T04:39:03.655Z,3.89
2023-02-17T04:39:35.746Z,3.92
2023-02-17T04:40:12.090Z,3.93
2023-02-17T04:40:44.206Z,3.93
2023-02-17T04:41:16.475Z,3.94
2023-02-17T04:41:51.154Z,3.96
2023-02-17T04:42:23.324Z,3.95
2023-02-17T04:42:55.406Z,3.96
2023-02-17T04:43:31.009Z,3.96
2023-02-17T04:44:03.251Z,3.96
2023-02-17T04:44:35.311Z,3.95
2023-02-17T04:45:11.268Z,3.97
2023-02-17T04:45:43.401Z,3.95
2023-02-17T04:46:15.519Z,3.93
2023-02-17T04:46:50.424Z,3.91
2023-02-17T04:47:23.029Z,3.88
2023-02-17T04:47:55.112Z,3.89
2023-02-17T04:48:29.786Z,3.90
2023-02-17T04:49:01.882Z,3.90
2023-02-17T04:49:36.710Z,3.92
2023-02-17T04:50:13.876Z,3.93
2023-02-17T04:50:46.115Z,3.91
2023-02-17T04:51:18.242Z,3.93
2023-02-17T04:51:52.921Z,3.94
2023-02-17T04:52:25.194Z,3.94
2023-02-17T04:52:57.264Z,3.96
2023-02-17T04:53:31.941Z,3.98
2023-02-17T04:54:04.222Z,3.97
2023-02-17T04:54:36.718Z,4.00
2023-02-17T04:55:09.253Z,4.02
2023-02-17T04:55:44.355Z,4.04
2023-02-17T04:56:16.478Z,4.04
2023-02-17T04:56:48.631Z,4.06
2023-02-17T04:57:23.334Z,4.06
2023-02-17T04:57:55.776Z,4.08
2023-02-17T04:58:27.998Z,4.09
2023-02-17T04:59:02.705Z,4.07
2023-02-17T04:59:34.793Z,4.07
2023-02-17T05:00:08.796Z,4.07
2023-02-17T05:00:43.521Z,4.07
2023-02-17T05:01:15.622Z,4.06
2023-02-17T05:01:47.795Z,4.06
2023-02-17T05:02:22.534Z,4.05
2023-02-17T05:02:54.636Z,4.01
2023-02-17T05:03:27.181Z,4.02
2023-02-17T05:04:01.844Z,4.01
2023-02-17T05:04:38.893Z,4.01
2023-02-17T05:05:11.013Z,4.01
2023-02-17T05:05:45.758Z,4.03
2023-02-17T05:06:17.973Z,4.02
2023-02-17T05:06:50.059Z,4.03
2023-02-17T05:07:25.295Z,4.04
2023-02-17T05:07:57.389Z,4.03
2023-02-17T05:08:29.483Z,4.04
2023-02-17T05:09:04.214Z,4.04
2023-02-17T05:09:36.427Z,4.03
2023-02-17T05:10:09.551Z,4.05
2023-02-17T05:10:44.236Z,4.05
2023-02-17T05:11:16.412Z,4.05
2023-02-17T05:11:49.004Z,4.05
2023-02-17T05:12:21.111Z,4.06
2023-02-17T05:12:55.773Z,4.06
2023-02-17T05:13:27.865Z,4.06
2023-02-17T05:14:02.548Z,4.07
2023-02-17T05:14:34.678Z,4.06
2023-02-17T05:15:08.321Z,4.06
2023-02-17T05:15:43.095Z,4.06
2023-02-17T05:16:15.230Z,4.07
2023-02-17T05:16:47.445Z,4.06
2023-02-17T05:17:22.169Z,4.08
2023-02-17T05:17:54.311Z,4.07
2023-02-17T05:18:26.399Z,4.09
2023-02-17T05:19:01.061Z,4.08
2023-02-17T05:19:33.353Z,4.10
2023-02-17T05:20:11.284Z,4.10
2023-02-17T05:20:45.944Z,4.11
2023-02-17T05:21:18.084Z,4.12
2023-02-17T05:21:51.461Z,4.12
2023-02-17T05:22:26.200Z,4.11
2023-02-17T05:22:58.346Z,4.10
2023-02-17T05:23:30.564Z,4.08
2023-02-17T05:24:05.247Z,4.09
2023-02-17T05:24:38.882Z,4.09
2023-02-17T05:25:11.120Z,4.09
2023-02-17T05:25:45.997Z,4.07
2023-02-17T05:26:18.073Z,4.07
2023-02-17T05:26:50.346Z,4.06
2023-02-17T05:27:25.166Z,4.06
2023-02-17T05:27:57.562Z,4.06
2023-02-17T05:28:29.744Z,4.05
2023-02-17T05:29:04.428Z,4.05
2023-02-17T05:29:36.709Z,4.04
2023-02-17T05:30:12.138Z,4.07
2023-02-17T05:30:44.493Z,4.06
2023-02-17T05:31:20.463Z,4.09
2023-02-17T05:31:52.705Z,4.05
2023-02-17T05:32:25.191Z,4.03
2023-02-17T05:33:00.939Z,4.04
2023-02-17T05:33:33.072Z,4.04
2023-02-17T05:34:05.340Z,4.04
2023-02-17T05:34:37.702Z,4.07
2023-02-17T05:35:15.120Z,4.07
2023-02-17T05:35:47.312Z,4.09
2023-02-17T05:36:19.429Z,4.07
2023-02-17T05:36:54.192Z,4.10
2023-02-17T05:37:27.211Z,4.10
2023-02-17T05:38:01.896Z,4.11
2023-02-17T05:38:34.157Z,4.11
2023-02-17T05:39:06.231Z,4.11
2023-02-17T05:39:41.176Z,4.11
2023-02-17T05:40:13.325Z,4.09
2023-02-17T05:40:47.977Z,4.10
2023-02-17T05:41:20.326Z,4.10
2023-02-17T05:41:52.483Z,4.09
2023-02-17T05:42:28.947Z,4.09
2023-02-17T05:43:01.104Z,4.06
2023-02-17T05:43:33.877Z,4.06
2023-02-17T05:44:08.547Z,4.05
2023-02-17T05:44:40.681Z,4.05
2023-02-17T05:45:12.850Z,4.04
2023-02-17T05:45:47.489Z,4.05
2023-02-17T05:46:19.590Z,4.05
2023-02-17T05:46:51.792Z,4.05
2023-02-17T05:47:27.769Z,4.06
2023-02-17T05:47:59.953Z,4.07
2023-02-17T05:48:32.488Z,4.09
2023-02-17T05:49:07.214Z,4.10
2023-02-17T05:49:39.307Z,4.10
2023-02-17T05:50:14.183Z,4.12
2023-02-17T05:50:48.993Z,4.13
2023-02-17T05:51:21.166Z,4.13
2023-02-17T05:51:53.314Z,4.15
2023-02-17T05:52:28.118Z,4.16
2023-02-17T05:53:00.241Z,4.17
2023-02-17T05:53:32.603Z,4.19
2023-02-17T05:54:07.711Z,4.20
2023-02-17T05:54:39.779Z,4.19
2023-02-17T05:55:11.866Z,4.20
2023-02-17T05:55:48.773Z,4.21
2023-02-17T05:56:21.056Z,4.19
2023-02-17T05:56:55.730Z,4.19
2023-02-17T05:57:28.219Z,4.20
2023-02-17T05:58:00.333Z,4.20
2023-02-17T05:58:35.044Z,4.20
2023-02-17T05:59:07.198Z,4.21
2023-02-17T05:59:39.456Z,4.20
2023-02-17T06:00:15.649Z,4.21
2023-02-17T06:00:48.009Z,4.21
2023-02-17T06:01:20.537Z,4.22
2023-02-17T06:01:55.293Z,4.23
2023-02-17T06:02:27.372Z,4.24
2023-02-17T06:02:59.496Z,4.24
2023-02-17T06:03:34.166Z,4.25
2023-02-17T06:04:06.338Z,4.25
2023-02-17T06:04:38.811Z,4.25
2023-02-17T06:05:16.169Z,4.26
2023-02-17T06:05:48.282Z,4.26
2023-02-17T06:06:20.561Z,4.26
2023-02-17T06:06:55.412Z,4.25
2023-02-17T06:07:27.637Z,4.25
2023-02-17T06:07:59.807Z,4.25
2023-02-17T06:08:34.524Z,4.25
2023-02-17T06:09:06.632Z,4.25
2023-02-17T06:09:38.813Z,4.24
2023-02-17T06:10:13.831Z,4.24
2023-02-17T06:10:45.894Z,4.24
2023-02-17T06:11:18.163Z,4.22
2023-02-17T06:11:50.256Z,4.23
2023-02-17T06:12:24.905Z,4.23
2023-02-17T06:12:57.065Z,4.24
2023-02-17T06:13:29.195Z,4.24
2023-02-17T06:14:03.902Z,4.25
2023-02-17T06:14:35.964Z,4.25
2023-02-17T06:15:08.586Z,4.26
2023-02-17T06:15:43.735Z,4.25
2023-02-17T06:16:15.898Z,4.25
2023-02-17T06:16:48.058Z,4.24
2023-02-17T06:17:22.722Z,4.22
2023-02-17T06:17:54.817Z,4.23
2023-02-17T06:18:29.586Z,4.23
2023-02-17T06:19:02.688Z,4.23
2023-02-17T06:19:34.829Z,4.23
2023-02-17T06:20:11.873Z,4.22
2023-02-17T06:20:47.066Z,4.21
2023-02-17T06:21:19.247Z,4.21
2023-02-17T06:21:53.942Z,4.20
2023-02-17T06:22:26.092Z,4.18
2023-02-17T06:22:58.159Z,4.18
2023-02-17T06:23:32.872Z,4.15
2023-02-17T06:24:05.756Z,4.15
2023-02-17T06:24:37.855Z,4.13
2023-02-17T06:25:12.846Z,4.12
2023-02-17T06:25:45.001Z,4.11
2023-02-17T06:26:18.634Z,4.13
2023-02-17T06:26:53.620Z,4.11
2023-02-17T06:27:25.933Z,4.12
2023-02-17T06:27:58.065Z,4.12
2023-02-17T06:28:34.801Z,4.14
2023-02-17T06:29:07.521Z,4.13
2023-02-17T06:29:39.956Z,4.14
2023-02-17T06:30:17.655Z,4.15
2023-02-17T06:30:49.838Z,4.16
2023-02-17T06:31:22.278Z,4.17
2023-02-17T06:31:57.283Z,4.18
2023-02-17T06:32:29.502Z,4.19
2023-02-17T06:33:01.601Z,4.19
2023-02-17T06:33:36.274Z,4.20
2023-02-17T06:34:08.434Z,4.21
2023-02-17T06:34:40.511Z,4.22
2023-02-17T06:35:15.344Z,4.23
2023-02-17T06:35:52.442Z,4.22
2023-02-17T06:36:25.064Z,4.20
2023-02-17T06:36:59.771Z,4.21
2023-02-17T06:37:31.859Z,4.22
2023-02-17T06:38:04.166Z,4.22
2023-02-17T06:38:38.953Z,4.22
2023-02-17T06:39:11.070Z,4.21
2023-02-17T06:39:43.198Z,4.20
2023-02-17T06:40:18.799Z,4.19
2023-02-17T06:40:50.986Z,4.16
2023-02-17T06:41:25.693Z,4.15
2023-02-17T06:41:58.004Z,4.12
2023-02-17T06:42:30.081Z,4.11
2023-02-17T06:43:04.779Z,4.10
2023-02-17T06:43:37.097Z,4.06
2023-02-17T06:44:09.165Z,4.06
2023-02-17T06:44:43.862Z,4.06
2023-02-17T06:45:16.421Z,4.04
2023-02-17T06:45:51.140Z,4.03
2023-02-17T06:46:23.264Z,4.02
2023-02-17T06:46:55.449Z,4.03
2023-02-17T06:47:30.504Z,4.02
2023-02-17T06:48:02.596Z,4.01
2023-02-17T06:48:37.344Z,4.01
2023-02-17T06:49:09.501Z,4.02
2023-02-17T06:49:41.575Z,4.03
2023-02-17T06:50:16.430Z,4.05
2023-02-17T06:50:51.957Z,4.02
2023-02-17T06:51:26.630Z,4.02
2023-02-17T06:51:58.791Z,3.99
2023-02-17T06:52:30.993Z,3.99
2023-02-17T06:53:05.694Z,3.97
2023-02-17T06:53:37.884Z,3.96
2023-02-17T06:54:10.072Z,3.96
2023-02-17T06:54:44.826Z,3.96
2023-02-17T06:55:17.112Z,3.97
2023-02-17T06:55:51.755Z,3.99
2023-02-17T06:56:24.023Z,3.99
2023-02-17T06:56:58.922Z,4.00
2023-02-17T06:57:31.159Z,4.00
2023-02-17T06:58:03.380Z,4.02
2023-02-17T06:58:40.006Z,4.04
2023-02-17T06:59:12.198Z,4.05
2023-02-17T06:59:44.570Z,4.06
2023-02-17T07:00:20.055Z,4.08
2023-02-17T07:00:52.136Z,4.10
2023-02-17T07:01:28.991Z,4.12
2023-02-17T07:02:02.471Z,4.13
2023-02-17T07:02:39.873Z,4.16
2023-02-17T07:03:12.130Z,4.15
2023-02-17T07:03:44.269Z,4.15
2023-02-17T07:04:19.009Z,4.16
2023-02-17T07:04:51.317Z,4.16
2023-02-17T07:05:25.950Z,4.17
2023-02-17T07:06:01.059Z,4.18
2023-02-17T07:06:35.820Z,4.19
2023-02-17T07:07:08.402Z,4.19
2023-02-17T07:07:43.162Z,4.19
2023-02-17T07:08:15.357Z,4.19
2023-02-17T07:08:47.573Z,4.17
2023-02-17T07:09:22.306Z,4.18
2023-02-17T07:09:54.452Z,4.17
2023-02-17T07:10:26.525Z,4.16
2023-02-17T07:11:01.197Z,4.15
2023-02-17T07:11:33.366Z,4.16
2023-02-17T07:12:06.302Z,4.14
2023-02-17T07:12:41.043Z,4.12
2023-02-17T07:13:13.141Z,4.11
2023-02-17T07:13:48.774Z,4.10
2023-02-17T07:14:20.912Z,4.11
2023-02-17T07:14:55.593Z,4.10
2023-02-17T07:15:27.793Z,4.10
2023-02-17T07:16:00.161Z,4.11
2023-02-17T07:16:35.083Z,4.10
2023-02-17T07:17:07.413Z,4.11
2023-02-17T07:17:39.598Z,4.10
2023-02-17T07:18:14.643Z,4.11
2023-02-17T07:18:46.791Z,4.10
2023-02-17T07:19:19.332Z,4.09
2023-02-17T07:19:54.066Z,4.10
2023-02-17T07:20:26.149Z,4.08
2023-02-17T07:21:00.929Z,4.09
2023-02-17T07:21:35.664Z,4.08
2023-02-17T07:22:07.744Z,4.09
2023-02-17T07:22:40.013Z,4.10
2023-02-17T07:23:14.765Z,4.10
2023-02-17T07:23:47.181Z,4.09
2023-02-17T07:24:19.341Z,4.07
2023-02-17T07:24:54.031Z,4.05
2023-02-17T07:25:26.252Z,4.06
2023-02-17T07:26:02.240Z,4.06
2023-02-17T07:26:38.867Z,4.05
2023-02-17T07:27:11.115Z,4.04
2023-02-17T07:27:43.239Z,4.05
2023-02-17T07:28:18.005Z,4.06
2023-02-17T07:28:50.069Z,4.06
2023-02-17T07:29:22.351Z,4.07
2023-02-17T07:29:57.037Z,4.07
2023-02-17T07:30:29.483Z,4.07
2023-02-17T07:31:06.265Z,4.07
2023-02-17T07:31:41.053Z,4.07
2023-02-17T07:32:13.262Z,4.05
2023-02-17T07:32:45.436Z,4.05
2023-02-17T07:33:20.102Z,4.06
2023-02-17T07:33:52.312Z,4.03
2023-02-17T07:34:27.321Z,4.05
2023-02-17T07:34:59.415Z,4.04
2023-02-17T07:35:31.576Z,4.06
2023-02-17T07:36:12.457Z,4.05
2023-02-17T07:36:44.888Z,4.05
2023-02-17T07:37:16.996Z,4.07
2023-02-17T07:37:51.773Z,4.09
2023-02-17T07:38:23.882Z,4.10
2023-02-17T07:38:56.358Z,4.12
2023-02-17T07:39:31.095Z,4.14
2023-02-17T07:40:04.396Z,4.14
2023-02-17T07:40:36.620Z,4.16
2023-02-17T07:41:13.647Z,4.15
2023-02-17T07:41:45.757Z,4.14
2023-02-17T07:42:18.267Z,4.14